sensor_id;sensor_type;location;lat;lon;timestamp;P1;durP1;ratioP1;P2;durP2;ratioP2
47617;SDS011;33336;36.728;-4.414;2023-06-04T00:01:23;10.57;;;4.78;;
47617;SDS011;33336;36.728;-4.414;2023-06-04T00:06:27;8.02;;;4.63;;
47617;SDS011;33336;36.728;-4.414;2023-06-04T00:11:30;7.43;;;4.25;;
47617;SDS011;33336;36.728;-4.414;2023-06-04T00:16:43;10.05;;;4.72;;
47617;SDS011;33336;36.728;-4.414;2023-06-04T00:21:59;7.47;;;4.43;;
47617;SDS011;33336;36.728;-4.414;2023-06-04T00:33:05;9.57;;;4.43;;
47617;SDS011;33336;36.728;-4.414;2023-06-04T00:38:23;6.85;;;4.80;;
47617;SDS011;33336;36.728;-4.414;2023-06-04T00:43:37;9.90;;;5.60;;
47617;SDS011;33336;36.728;-4.414;2023-06-04T00:48:42;11.13;;;5.78;;
47617;SDS011;33336;36.728;-4.414;2023-06-04T00:53:46;8.80;;;5.78;;
47617;SDS011;33336;36.728;-4.414;2023-06-04T00:58:54;8.63;;;5.68;;
47617;SDS011;33336;36.728;-4.414;2023-06-04T01:03:59;8.13;;;5.45;;
47617;SDS011;33336;36.728;-4.414;2023-06-04T01:09:05;8.65;;;5.13;;
47617;SDS011;33336;36.728;-4.414;2023-06-04T01:14:09;9.38;;;5.18;;
47617;SDS011;33336;36.728;-4.414;2023-06-04T01:25:02;6.45;;;4.55;;
47617;SDS011;33336;36.728;-4.414;2023-06-04T01:30:23;6.53;;;4.90;;
47617;SDS011;33336;36.728;-4.414;2023-06-04T01:35:29;8.57;;;5.25;;
47617;SDS011;33336;36.728;-4.414;2023-06-04T01:40:36;7.50;;;5.28;;
47617;SDS011;33336;36.728;-4.414;2023-06-04T01:45:39;6.85;;;5.15;;
47617;SDS011;33336;36.728;-4.414;2023-06-04T01:50:43;9.18;;;5.45;;
47617;SDS011;33336;36.728;-4.414;2023-06-04T01:55:46;7.75;;;5.45;;
47617;SDS011;33336;36.728;-4.414;2023-06-04T02:00:50;6.13;;;3.85;;
47617;SDS011;33336;36.728;-4.414;2023-06-04T02:05:55;5.68;;;3.65;;
47617;SDS011;33336;36.728;-4.414;2023-06-04T02:10:58;4.82;;;3.85;;
47617;SDS011;33336;36.728;-4.414;2023-06-04T02:16:00;6.75;;;3.65;;
47617;SDS011;33336;36.728;-4.414;2023-06-04T02:21:05;5.97;;;3.45;;
47617;SDS011;33336;36.728;-4.414;2023-06-04T02:26:08;3.95;;;3.22;;
47617;SDS011;33336;36.728;-4.414;2023-06-04T02:31:12;5.80;;;3.60;;
47617;SDS011;33336;36.728;-4.414;2023-06-04T02:36:16;4.00;;;3.58;;
47617;SDS011;33336;36.728;-4.414;2023-06-04T02:41:20;4.95;;;3.47;;
47617;SDS011;33336;36.728;-4.414;2023-06-04T02:46:23;4.88;;;2.90;;
47617;SDS011;33336;36.728;-4.414;2023-06-04T02:51:28;5.35;;;3.20;;
47617;SDS011;33336;36.728;-4.414;2023-06-04T02:56:31;5.85;;;3.78;;
47617;SDS011;33336;36.728;-4.414;2023-06-04T03:01:36;5.72;;;3.33;;
47617;SDS011;33336;36.728;-4.414;2023-06-04T03:06:40;3.92;;;2.90;;
47617;SDS011;33336;36.728;-4.414;2023-06-04T03:11:46;8.70;;;3.92;;
47617;SDS011;33336;36.728;-4.414;2023-06-04T03:16:48;5.68;;;2.90;;
47617;SDS011;33336;36.728;-4.414;2023-06-04T03:21:54;6.22;;;3.03;;
47617;SDS011;33336;36.728;-4.414;2023-06-04T03:26:57;4.00;;;3.60;;
47617;SDS011;33336;36.728;-4.414;2023-06-04T03:32:01;5.32;;;3.22;;
47617;SDS011;33336;36.728;-4.414;2023-06-04T03:37:05;7.57;;;3.60;;
47617;SDS011;33336;36.728;-4.414;2023-06-04T03:42:09;4.18;;;2.83;;
47617;SDS011;33336;36.728;-4.414;2023-06-04T03:47:12;10.07;;;4.47;;
47617;SDS011;33336;36.728;-4.414;2023-06-04T03:52:16;7.65;;;3.40;;
47617;SDS011;33336;36.728;-4.414;2023-06-04T03:57:19;8.07;;;3.97;;
47617;SDS011;33336;36.728;-4.414;2023-06-04T04:02:22;5.13;;;3.85;;
47617;SDS011;33336;36.728;-4.414;2023-06-04T04:07:26;8.68;;;3.85;;
47617;SDS011;33336;36.728;-4.414;2023-06-04T04:12:30;8.32;;;4.05;;
47617;SDS011;33336;36.728;-4.414;2023-06-04T04:17:33;9.38;;;4.57;;
47617;SDS011;33336;36.728;-4.414;2023-06-04T04:22:41;5.95;;;3.88;;
47617;SDS011;33336;36.728;-4.414;2023-06-04T04:32:46;4.70;;;3.60;;
47617;SDS011;33336;36.728;-4.414;2023-06-04T04:37:52;9.52;;;4.22;;
47617;SDS011;33336;36.728;-4.414;2023-06-04T04:42:55;5.00;;;3.97;;
47617;SDS011;33336;36.728;-4.414;2023-06-04T04:48:00;7.28;;;4.18;;
47617;SDS011;33336;36.728;-4.414;2023-06-04T04:53:04;7.70;;;4.35;;
47617;SDS011;33336;36.728;-4.414;2023-06-04T04:58:08;4.88;;;3.83;;
47617;SDS011;33336;36.728;-4.414;2023-06-04T05:03:10;5.03;;;4.38;;
47617;SDS011;33336;36.728;-4.414;2023-06-04T05:08:15;5.50;;;4.38;;
47617;SDS011;33336;36.728;-4.414;2023-06-04T05:13:20;7.57;;;4.90;;
47617;SDS011;33336;36.728;-4.414;2023-06-04T05:18:24;6.25;;;4.72;;
47617;SDS011;33336;36.728;-4.414;2023-06-04T05:23:31;6.05;;;4.00;;
47617;SDS011;33336;36.728;-4.414;2023-06-04T05:28:36;7.22;;;3.70;;
47617;SDS011;33336;36.728;-4.414;2023-06-04T05:33:41;7.70;;;4.82;;
47617;SDS011;33336;36.728;-4.414;2023-06-04T05:38:52;5.50;;;3.88;;
47617;SDS011;33336;36.728;-4.414;2023-06-04T05:43:58;4.60;;;4.00;;
47617;SDS011;33336;36.728;-4.414;2023-06-04T05:49:02;10.25;;;4.68;;
47617;SDS011;33336;36.728;-4.414;2023-06-04T05:54:06;9.73;;;4.88;;
47617;SDS011;33336;36.728;-4.414;2023-06-04T05:59:10;6.53;;;4.10;;
47617;SDS011;33336;36.728;-4.414;2023-06-04T06:04:12;7.65;;;4.68;;
47617;SDS011;33336;36.728;-4.414;2023-06-04T06:09:19;7.80;;;4.80;;
47617;SDS011;33336;36.728;-4.414;2023-06-04T06:14:22;7.43;;;4.70;;
47617;SDS011;33336;36.728;-4.414;2023-06-04T06:19:26;6.03;;;3.72;;
47617;SDS011;33336;36.728;-4.414;2023-06-04T06:24:30;5.05;;;3.85;;
47617;SDS011;33336;36.728;-4.414;2023-06-04T06:29:34;7.93;;;4.15;;
47617;SDS011;33336;36.728;-4.414;2023-06-04T06:34:36;5.63;;;4.45;;
47617;SDS011;33336;36.728;-4.414;2023-06-04T06:39:41;6.45;;;4.20;;
47617;SDS011;33336;36.728;-4.414;2023-06-04T06:44:44;6.45;;;3.83;;
47617;SDS011;33336;36.728;-4.414;2023-06-04T06:49:48;6.78;;;3.67;;
47617;SDS011;33336;36.728;-4.414;2023-06-04T06:54:52;6.45;;;4.00;;
47617;SDS011;33336;36.728;-4.414;2023-06-04T06:59:56;9.15;;;3.60;;
47617;SDS011;33336;36.728;-4.414;2023-06-04T07:04:59;8.90;;;4.15;;
47617;SDS011;33336;36.728;-4.414;2023-06-04T07:10:04;4.63;;;3.30;;
47617;SDS011;33336;36.728;-4.414;2023-06-04T07:15:08;9.13;;;4.13;;
47617;SDS011;33336;36.728;-4.414;2023-06-04T07:20:12;4.95;;;3.67;;
47617;SDS011;33336;36.728;-4.414;2023-06-04T07:25:16;8.15;;;4.30;;
47617;SDS011;33336;36.728;-4.414;2023-06-04T07:30:20;3.97;;;3.35;;
47617;SDS011;33336;36.728;-4.414;2023-06-04T07:35:23;5.18;;;3.83;;
47617;SDS011;33336;36.728;-4.414;2023-06-04T07:40:27;4.57;;;3.30;;
47617;SDS011;33336;36.728;-4.414;2023-06-04T07:45:30;6.97;;;3.83;;
47617;SDS011;33336;36.728;-4.414;2023-06-04T07:50:34;11.82;;;5.05;;
47617;SDS011;33336;36.728;-4.414;2023-06-04T07:55:38;6.50;;;4.60;;
47617;SDS011;33336;36.728;-4.414;2023-06-04T08:00:42;6.65;;;3.90;;
47617;SDS011;33336;36.728;-4.414;2023-06-04T08:05:45;8.48;;;4.22;;
47617;SDS011;33336;36.728;-4.414;2023-06-04T08:10:49;7.25;;;4.70;;
47617;SDS011;33336;36.728;-4.414;2023-06-04T08:15:52;8.77;;;4.80;;
47617;SDS011;33336;36.728;-4.414;2023-06-04T08:20:55;7.07;;;5.45;;
47617;SDS011;33336;36.728;-4.414;2023-06-04T08:25:59;6.57;;;4.68;;
47617;SDS011;33336;36.728;-4.414;2023-06-04T08:31:03;10.13;;;5.53;;
47617;SDS011;33336;36.728;-4.414;2023-06-04T08:36:06;7.70;;;5.85;;
47617;SDS011;33336;36.728;-4.414;2023-06-04T08:41:13;6.85;;;5.55;;
47617;SDS011;33336;36.728;-4.414;2023-06-04T08:46:17;9.13;;;5.85;;
47617;SDS011;33336;36.728;-4.414;2023-06-04T08:51:20;9.02;;;4.70;;
47617;SDS011;33336;36.728;-4.414;2023-06-04T08:56:25;9.13;;;6.35;;
47617;SDS011;33336;36.728;-4.414;2023-06-04T09:01:30;7.43;;;5.63;;
47617;SDS011;33336;36.728;-4.414;2023-06-04T09:06:34;8.57;;;5.93;;
47617;SDS011;33336;36.728;-4.414;2023-06-04T09:11:41;8.93;;;6.35;;
47617;SDS011;33336;36.728;-4.414;2023-06-04T09:16:48;10.15;;;6.50;;
47617;SDS011;33336;36.728;-4.414;2023-06-04T09:21:53;8.10;;;5.75;;
47617;SDS011;33336;36.728;-4.414;2023-06-04T09:26:59;6.95;;;5.25;;
47617;SDS011;33336;36.728;-4.414;2023-06-04T09:32:12;8.73;;;6.15;;
47617;SDS011;33336;36.728;-4.414;2023-06-04T09:37:15;10.27;;;5.70;;
47617;SDS011;33336;36.728;-4.414;2023-06-04T09:42:19;7.68;;;5.45;;
47617;SDS011;33336;36.728;-4.414;2023-06-04T09:47:22;6.32;;;4.93;;
47617;SDS011;33336;36.728;-4.414;2023-06-04T09:52:32;4.68;;;4.00;;
47617;SDS011;33336;36.728;-4.414;2023-06-04T09:57:37;7.90;;;4.45;;
47617;SDS011;33336;36.728;-4.414;2023-06-04T10:02:41;6.43;;;5.18;;
47617;SDS011;33336;36.728;-4.414;2023-06-04T10:07:46;7.85;;;4.57;;
47617;SDS011;33336;36.728;-4.414;2023-06-04T10:12:56;6.15;;;4.88;;
47617;SDS011;33336;36.728;-4.414;2023-06-04T10:18:03;8.20;;;5.05;;
47617;SDS011;33336;36.728;-4.414;2023-06-04T10:23:07;8.93;;;5.07;;
47617;SDS011;33336;36.728;-4.414;2023-06-04T10:28:11;6.57;;;4.50;;
47617;SDS011;33336;36.728;-4.414;2023-06-04T10:33:15;8.30;;;5.80;;
47617;SDS011;33336;36.728;-4.414;2023-06-04T10:38:18;8.70;;;5.57;;
47617;SDS011;33336;36.728;-4.414;2023-06-04T10:43:29;7.05;;;5.15;;
47617;SDS011;33336;36.728;-4.414;2023-06-04T10:48:32;6.00;;;4.50;;
47617;SDS011;33336;36.728;-4.414;2023-06-04T10:53:36;12.70;;;6.25;;
47617;SDS011;33336;36.728;-4.414;2023-06-04T10:58:40;9.65;;;6.55;;
47617;SDS011;33336;36.728;-4.414;2023-06-04T11:03:45;7.85;;;5.93;;
47617;SDS011;33336;36.728;-4.414;2023-06-04T11:08:48;6.47;;;5.38;;
47617;SDS011;33336;36.728;-4.414;2023-06-04T11:13:53;13.02;;;5.45;;
47617;SDS011;33336;36.728;-4.414;2023-06-04T11:18:56;7.72;;;4.32;;
47617;SDS011;33336;36.728;-4.414;2023-06-04T11:24:00;11.20;;;4.07;;
47617;SDS011;33336;36.728;-4.414;2023-06-04T11:29:06;8.93;;;3.97;;
47617;SDS011;33336;36.728;-4.414;2023-06-04T11:34:21;10.50;;;4.50;;
47617;SDS011;33336;36.728;-4.414;2023-06-04T11:39:33;11.50;;;4.22;;
47617;SDS011;33336;36.728;-4.414;2023-06-04T11:44:42;7.60;;;3.40;;
47617;SDS011;33336;36.728;-4.414;2023-06-04T11:49:52;6.32;;;3.90;;
47617;SDS011;33336;36.728;-4.414;2023-06-04T11:54:57;7.72;;;4.60;;
47617;SDS011;33336;36.728;-4.414;2023-06-04T12:00:02;11.48;;;4.20;;
47617;SDS011;33336;36.728;-4.414;2023-06-04T12:05:11;13.80;;;3.95;;
47617;SDS011;33336;36.728;-4.414;2023-06-04T12:10:14;14.20;;;4.50;;
47617;SDS011;33336;36.728;-4.414;2023-06-04T12:15:20;14.48;;;4.40;;
47617;SDS011;33336;36.728;-4.414;2023-06-04T12:20:32;9.13;;;4.03;;
47617;SDS011;33336;36.728;-4.414;2023-06-04T12:25:36;8.20;;;4.13;;
47617;SDS011;33336;36.728;-4.414;2023-06-04T12:30:41;4.97;;;3.70;;
47617;SDS011;33336;36.728;-4.414;2023-06-04T12:35:44;7.18;;;4.10;;
47617;SDS011;33336;36.728;-4.414;2023-06-04T12:40:46;8.05;;;4.00;;
47617;SDS011;33336;36.728;-4.414;2023-06-04T12:45:51;8.40;;;4.03;;
47617;SDS011;33336;36.728;-4.414;2023-06-04T12:50:54;14.27;;;4.25;;
47617;SDS011;33336;36.728;-4.414;2023-06-04T12:55:58;8.73;;;4.38;;
47617;SDS011;33336;36.728;-4.414;2023-06-04T13:01:02;10.55;;;4.20;;
47617;SDS011;33336;36.728;-4.414;2023-06-04T13:06:06;6.75;;;3.88;;
47617;SDS011;33336;36.728;-4.414;2023-06-04T13:11:09;9.07;;;4.80;;
47617;SDS011;33336;36.728;-4.414;2023-06-04T13:16:14;7.07;;;4.10;;
47617;SDS011;33336;36.728;-4.414;2023-06-04T13:21:17;6.85;;;3.63;;
47617;SDS011;33336;36.728;-4.414;2023-06-04T13:26:21;7.50;;;3.92;;
47617;SDS011;33336;36.728;-4.414;2023-06-04T13:31:26;11.07;;;4.68;;
47617;SDS011;33336;36.728;-4.414;2023-06-04T13:36:28;8.02;;;4.32;;
47617;SDS011;33336;36.728;-4.414;2023-06-04T13:41:31;7.68;;;4.20;;
47617;SDS011;33336;36.728;-4.414;2023-06-04T13:46:36;6.90;;;3.83;;
47617;SDS011;33336;36.728;-4.414;2023-06-04T13:51:39;8.68;;;4.65;;
47617;SDS011;33336;36.728;-4.414;2023-06-04T13:56:43;7.75;;;3.65;;
47617;SDS011;33336;36.728;-4.414;2023-06-04T14:01:47;6.50;;;3.53;;
47617;SDS011;33336;36.728;-4.414;2023-06-04T14:06:50;5.93;;;3.97;;
47617;SDS011;33336;36.728;-4.414;2023-06-04T14:11:53;10.10;;;4.25;;
47617;SDS011;33336;36.728;-4.414;2023-06-04T14:16:58;8.63;;;4.32;;
47617;SDS011;33336;36.728;-4.414;2023-06-04T14:22:01;7.53;;;4.07;;
47617;SDS011;33336;36.728;-4.414;2023-06-04T14:27:04;9.10;;;3.45;;
47617;SDS011;33336;36.728;-4.414;2023-06-04T14:32:12;8.77;;;3.78;;
47617;SDS011;33336;36.728;-4.414;2023-06-04T14:37:15;5.35;;;3.60;;
47617;SDS011;33336;36.728;-4.414;2023-06-04T14:42:20;8.98;;;4.35;;
47617;SDS011;33336;36.728;-4.414;2023-06-04T14:47:25;6.28;;;3.42;;
47617;SDS011;33336;36.728;-4.414;2023-06-04T14:52:28;6.88;;;3.58;;
47617;SDS011;33336;36.728;-4.414;2023-06-04T14:57:31;16.23;;;4.60;;
47617;SDS011;33336;36.728;-4.414;2023-06-04T15:02:36;10.63;;;4.38;;
47617;SDS011;33336;36.728;-4.414;2023-06-04T15:07:42;9.00;;;3.78;;
47617;SDS011;33336;36.728;-4.414;2023-06-04T15:12:45;9.57;;;3.92;;
47617;SDS011;33336;36.728;-4.414;2023-06-04T15:17:51;8.35;;;3.65;;
47617;SDS011;33336;36.728;-4.414;2023-06-04T15:22:54;7.03;;;3.20;;
47617;SDS011;33336;36.728;-4.414;2023-06-04T15:27:58;8.30;;;4.57;;
47617;SDS011;33336;36.728;-4.414;2023-06-04T15:33:02;8.25;;;3.60;;
47617;SDS011;33336;36.728;-4.414;2023-06-04T15:38:05;7.78;;;3.58;;
47617;SDS011;33336;36.728;-4.414;2023-06-04T15:43:08;7.85;;;3.83;;
47617;SDS011;33336;36.728;-4.414;2023-06-04T15:48:13;6.55;;;3.25;;
47617;SDS011;33336;36.728;-4.414;2023-06-04T15:53:16;9.32;;;3.30;;
47617;SDS011;33336;36.728;-4.414;2023-06-04T15:58:19;9.93;;;3.40;;
47617;SDS011;33336;36.728;-4.414;2023-06-04T16:03:24;7.32;;;3.10;;
47617;SDS011;33336;36.728;-4.414;2023-06-04T16:08:27;7.43;;;2.50;;
47617;SDS011;33336;36.728;-4.414;2023-06-04T16:13:30;7.43;;;2.20;;
47617;SDS011;33336;36.728;-4.414;2023-06-04T16:18:37;5.65;;;2.78;;
47617;SDS011;33336;36.728;-4.414;2023-06-04T16:23:40;5.97;;;2.88;;
47617;SDS011;33336;36.728;-4.414;2023-06-04T16:28:43;7.13;;;3.28;;
47617;SDS011;33336;36.728;-4.414;2023-06-04T16:33:48;12.83;;;3.40;;
47617;SDS011;33336;36.728;-4.414;2023-06-04T16:38:51;8.85;;;2.85;;
47617;SDS011;33336;36.728;-4.414;2023-06-04T16:43:53;5.30;;;2.58;;
47617;SDS011;33336;36.728;-4.414;2023-06-04T16:48:58;4.32;;;2.80;;
47617;SDS011;33336;36.728;-4.414;2023-06-04T16:54:04;7.63;;;2.92;;
47617;SDS011;33336;36.728;-4.414;2023-06-04T16:59:10;5.85;;;2.35;;
47617;SDS011;33336;36.728;-4.414;2023-06-04T17:04:14;8.32;;;2.80;;
47617;SDS011;33336;36.728;-4.414;2023-06-04T17:14:21;8.47;;;2.60;;
47617;SDS011;33336;36.728;-4.414;2023-06-04T17:19:26;5.97;;;3.50;;
47617;SDS011;33336;36.728;-4.414;2023-06-04T17:29:31;8.57;;;3.20;;
47617;SDS011;33336;36.728;-4.414;2023-06-04T17:34:36;11.98;;;3.92;;
47617;SDS011;33336;36.728;-4.414;2023-06-04T17:39:39;5.90;;;2.73;;
47617;SDS011;33336;36.728;-4.414;2023-06-04T17:44:42;10.55;;;3.70;;
47617;SDS011;33336;36.728;-4.414;2023-06-04T17:49:47;10.00;;;3.35;;
47617;SDS011;33336;36.728;-4.414;2023-06-04T17:54:50;7.10;;;4.10;;
47617;SDS011;33336;36.728;-4.414;2023-06-04T17:59:53;7.85;;;3.50;;
47617;SDS011;33336;36.728;-4.414;2023-06-04T18:04:58;11.10;;;4.45;;
47617;SDS011;33336;36.728;-4.414;2023-06-04T18:10:01;8.80;;;3.80;;
47617;SDS011;33336;36.728;-4.414;2023-06-04T18:15:05;5.97;;;3.43;;
47617;SDS011;33336;36.728;-4.414;2023-06-04T18:20:14;7.25;;;3.88;;
47617;SDS011;33336;36.728;-4.414;2023-06-04T18:25:17;11.98;;;4.35;;
47617;SDS011;33336;36.728;-4.414;2023-06-04T18:30:20;8.55;;;4.97;;
47617;SDS011;33336;36.728;-4.414;2023-06-04T18:35:27;6.03;;;3.80;;
47617;SDS011;33336;36.728;-4.414;2023-06-04T18:40:32;8.95;;;4.63;;
47617;SDS011;33336;36.728;-4.414;2023-06-04T18:45:35;7.93;;;3.65;;
47617;SDS011;33336;36.728;-4.414;2023-06-04T18:50:41;13.82;;;3.60;;
47617;SDS011;33336;36.728;-4.414;2023-06-04T18:55:46;7.80;;;4.30;;
47617;SDS011;33336;36.728;-4.414;2023-06-04T19:00:50;8.13;;;4.25;;
47617;SDS011;33336;36.728;-4.414;2023-06-04T19:05:55;9.10;;;4.32;;
47617;SDS011;33336;36.728;-4.414;2023-06-04T19:10:58;10.35;;;5.40;;
47617;SDS011;33336;36.728;-4.414;2023-06-04T19:16:01;7.22;;;4.28;;
47617;SDS011;33336;36.728;-4.414;2023-06-04T19:21:06;14.38;;;5.18;;
47617;SDS011;33336;36.728;-4.414;2023-06-04T19:26:09;10.00;;;6.03;;
47617;SDS011;33336;36.728;-4.414;2023-06-04T19:31:12;13.07;;;5.72;;
47617;SDS011;33336;36.728;-4.414;2023-06-04T19:36:17;14.68;;;6.35;;
47617;SDS011;33336;36.728;-4.414;2023-06-04T19:41:20;10.48;;;5.57;;
47617;SDS011;33336;36.728;-4.414;2023-06-04T19:46:25;13.43;;;6.07;;
47617;SDS011;33336;36.728;-4.414;2023-06-04T19:51:30;8.77;;;5.57;;
47617;SDS011;33336;36.728;-4.414;2023-06-04T19:56:33;12.07;;;5.93;;
47617;SDS011;33336;36.728;-4.414;2023-06-04T20:01:36;11.40;;;6.43;;
47617;SDS011;33336;36.728;-4.414;2023-06-04T20:06:45;10.48;;;6.32;;
47617;SDS011;33336;36.728;-4.414;2023-06-04T20:11:50;17.42;;;7.22;;
47617;SDS011;33336;36.728;-4.414;2023-06-04T20:16:54;9.00;;;6.03;;
47617;SDS011;33336;36.728;-4.414;2023-06-04T20:22:00;13.80;;;7.32;;
47617;SDS011;33336;36.728;-4.414;2023-06-04T20:27:03;14.88;;;7.65;;
47617;SDS011;33336;36.728;-4.414;2023-06-04T20:32:06;15.90;;;6.68;;
47617;SDS011;33336;36.728;-4.414;2023-06-04T20:37:11;13.05;;;7.75;;
47617;SDS011;33336;36.728;-4.414;2023-06-04T20:42:14;13.05;;;6.68;;
47617;SDS011;33336;36.728;-4.414;2023-06-04T20:47:19;14.93;;;6.60;;
47617;SDS011;33336;36.728;-4.414;2023-06-04T20:52:26;10.88;;;5.88;;
47617;SDS011;33336;36.728;-4.414;2023-06-04T20:57:29;14.48;;;6.68;;
47617;SDS011;33336;36.728;-4.414;2023-06-04T21:02:33;10.88;;;7.80;;
47617;SDS011;33336;36.728;-4.414;2023-06-04T21:07:37;11.13;;;6.63;;
47617;SDS011;33336;36.728;-4.414;2023-06-04T21:12:44;11.82;;;7.10;;
47617;SDS011;33336;36.728;-4.414;2023-06-04T21:17:47;11.60;;;6.13;;
47617;SDS011;33336;36.728;-4.414;2023-06-04T21:22:52;10.95;;;7.63;;
47617;SDS011;33336;36.728;-4.414;2023-06-04T21:27:55;12.48;;;7.95;;
47617;SDS011;33336;36.728;-4.414;2023-06-04T21:32:58;11.93;;;7.95;;
47617;SDS011;33336;36.728;-4.414;2023-06-04T21:38:02;13.65;;;7.75;;
47617;SDS011;33336;36.728;-4.414;2023-06-04T21:43:06;12.60;;;7.25;;
47617;SDS011;33336;36.728;-4.414;2023-06-04T21:48:09;13.82;;;7.63;;
47617;SDS011;33336;36.728;-4.414;2023-06-04T21:53:14;11.88;;;7.00;;
47617;SDS011;33336;36.728;-4.414;2023-06-04T21:58:17;13.10;;;6.85;;
47617;SDS011;33336;36.728;-4.414;2023-06-04T22:03:21;12.93;;;7.15;;
47617;SDS011;33336;36.728;-4.414;2023-06-04T22:08:26;12.02;;;7.20;;
47617;SDS011;33336;36.728;-4.414;2023-06-04T22:13:29;19.38;;;9.07;;
47617;SDS011;33336;36.728;-4.414;2023-06-04T22:18:32;10.80;;;8.38;;
47617;SDS011;33336;36.728;-4.414;2023-06-04T22:23:40;15.10;;;7.95;;
47617;SDS011;33336;36.728;-4.414;2023-06-04T22:28:54;17.83;;;7.75;;
47617;SDS011;33336;36.728;-4.414;2023-06-04T22:33:57;16.30;;;8.50;;
47617;SDS011;33336;36.728;-4.414;2023-06-04T22:39:02;11.32;;;8.40;;
47617;SDS011;33336;36.728;-4.414;2023-06-04T22:44:05;13.40;;;7.88;;
47617;SDS011;33336;36.728;-4.414;2023-06-04T22:49:08;11.63;;;8.60;;
47617;SDS011;33336;36.728;-4.414;2023-06-04T22:54:13;12.30;;;7.10;;
47617;SDS011;33336;36.728;-4.414;2023-06-04T22:59:16;12.27;;;8.75;;
47617;SDS011;33336;36.728;-4.414;2023-06-04T23:04:19;15.43;;;7.63;;
47617;SDS011;33336;36.728;-4.414;2023-06-04T23:09:24;15.93;;;7.65;;
47617;SDS011;33336;36.728;-4.414;2023-06-04T23:14:27;17.60;;;8.70;;
47617;SDS011;33336;36.728;-4.414;2023-06-04T23:19:30;16.58;;;10.07;;
47617;SDS011;33336;36.728;-4.414;2023-06-04T23:24:35;15.52;;;9.88;;
47617;SDS011;33336;36.728;-4.414;2023-06-04T23:29:38;14.45;;;8.98;;
47617;SDS011;33336;36.728;-4.414;2023-06-04T23:34:41;16.10;;;9.43;;
47617;SDS011;33336;36.728;-4.414;2023-06-04T23:39:46;17.48;;;9.70;;
47617;SDS011;33336;36.728;-4.414;2023-06-04T23:44:49;14.63;;;10.00;;
47617;SDS011;33336;36.728;-4.414;2023-06-04T23:49:52;14.05;;;9.88;;
47617;SDS011;33336;36.728;-4.414;2023-06-04T23:54:57;15.50;;;9.93;;
